createdAt,value
2022-09-23T00:00:36.810Z,77.50
2022-09-23T00:03:03.839Z,77.40
2022-09-23T00:05:31.014Z,77.64
2022-09-23T00:07:57.902Z,77.67
2022-09-23T00:10:26.617Z,78.26
2022-09-23T00:12:55.134Z,78.45
2022-09-23T00:15:21.990Z,78.60
2022-09-23T00:17:48.526Z,78.97
2022-09-23T00:20:14.887Z,79.13
2022-09-23T00:22:41.326Z,79.02
2022-09-23T00:25:09.294Z,78.81
2022-09-23T00:27:36.600Z,78.63
2022-09-23T00:30:06.898Z,78.82
2022-09-23T00:32:34.279Z,79.19
2022-09-23T00:35:00.652Z,79.02
2022-09-23T00:37:28.644Z,79.96
2022-09-23T00:39:55.531Z,80.08
2022-09-23T00:42:24.464Z,79.93
2022-09-23T00:44:54.161Z,80.23
2022-09-23T00:47:30.753Z,79.96
2022-09-23T00:50:13.700Z,79.73
2022-09-23T00:52:40.067Z,79.62
2022-09-23T00:55:11.257Z,79.44
2022-09-23T00:57:40.103Z,79.69
2022-09-23T01:00:07.935Z,80.03
2022-09-23T01:02:35.120Z,80.17
2022-09-23T01:05:04.220Z,80.45
2022-09-23T01:07:33.346Z,80.36
2022-09-23T01:10:01.350Z,80.51
2022-09-23T01:13:13.624Z,80.60
2022-09-23T01:15:58.483Z,80.73
2022-09-23T01:18:51.287Z,80.71
2022-09-23T01:21:43.096Z,80.52
2022-09-23T01:24:45.954Z,80.11
2022-09-23T01:27:42.259Z,80.18
2022-09-23T01:30:08.918Z,80.13
2022-09-23T01:33:04.703Z,80.32
2022-09-23T01:35:57.777Z,80.79
2022-09-23T01:38:43.424Z,80.91
2022-09-23T01:41:40.533Z,80.82
2022-09-23T01:44:19.810Z,80.74
2022-09-23T01:47:01.685Z,81.21
2022-09-23T01:49:40.395Z,81.58
2022-09-23T01:52:18.192Z,81.66
2022-09-23T01:55:05.982Z,81.53
2022-09-23T01:57:49.257Z,81.65
2022-09-23T02:00:18.358Z,81.55
2022-09-23T02:02:53.087Z,81.66
2022-09-23T02:05:34.840Z,81.75
2022-09-23T02:08:08.849Z,81.97
2022-09-23T02:10:44.318Z,81.97
2022-09-23T02:13:17.622Z,81.88
2022-09-23T02:15:49.837Z,81.98
2022-09-23T02:18:28.518Z,82.07
2022-09-23T02:21:00.319Z,82.08
2022-09-23T02:23:43.480Z,81.81
2022-09-23T02:26:30.424Z,81.82
2022-09-23T02:28:57.175Z,82.01
2022-09-23T02:31:41.871Z,81.91
2022-09-23T02:34:08.495Z,81.96
2022-09-23T02:36:56.078Z,82.16
2022-09-23T02:39:28.352Z,82.16
2022-09-23T02:42:05.225Z,82.14
2022-09-23T02:44:32.731Z,82.04
2022-09-23T02:46:59.887Z,82.20
2022-09-23T02:49:34.080Z,82.38
2022-09-23T02:52:05.427Z,82.34
2022-09-23T02:54:33.599Z,82.36
2022-09-23T02:57:03.793Z,82.29
2022-09-23T02:59:31.788Z,82.41
2022-09-23T03:02:21.753Z,82.60
2022-09-23T03:04:58.432Z,82.71
2022-09-23T03:07:31.718Z,82.91
2022-09-23T03:10:46.505Z,82.60
2022-09-23T03:13:32.408Z,82.56
2022-09-23T03:16:11.830Z,82.67
2022-09-23T03:19:18.500Z,82.59
2022-09-23T03:21:51.686Z,82.66
2022-09-23T03:24:23.940Z,82.25
2022-09-23T03:26:54.162Z,82.65
2022-09-23T03:29:25.265Z,83.24
2022-09-23T03:31:53.387Z,83.43
2022-09-23T03:34:28.283Z,83.41
2022-09-23T03:37:00.855Z,83.19
2022-09-23T03:39:44.149Z,83.60
2022-09-23T03:42:19.046Z,83.80
2022-09-23T03:44:54.762Z,83.83
2022-09-23T03:47:21.587Z,84.12
2022-09-23T03:49:50.944Z,83.78
2022-09-23T03:52:20.148Z,83.86
2022-09-23T03:54:47.008Z,83.92
2022-09-23T03:57:14.246Z,83.69
2022-09-23T03:59:40.984Z,83.67
2022-09-23T04:02:08.214Z,83.80
2022-09-23T04:04:40.104Z,83.68
2022-09-23T04:07:06.586Z,83.98
2022-09-23T04:09:33.260Z,83.72
2022-09-23T04:12:00.651Z,84.09
2022-09-23T04:14:27.342Z,84.54
2022-09-23T04:16:53.749Z,84.71
2022-09-23T04:19:20.334Z,84.49
2022-09-23T04:21:46.900Z,84.88
2022-09-23T04:24:14.703Z,84.89
2022-09-23T04:26:44.529Z,84.61
2022-09-23T04:29:11.533Z,84.72
2022-09-23T04:31:38.286Z,84.45
2022-09-23T04:34:04.775Z,84.36
2022-09-23T04:36:31.233Z,84.18
2022-09-23T04:38:57.726Z,84.07
2022-09-23T04:41:24.107Z,84.19
2022-09-23T04:43:50.468Z,84.35
2022-09-23T04:46:17.170Z,84.52
2022-09-23T04:48:44.200Z,84.56
2022-09-23T04:51:13.818Z,84.64
2022-09-23T04:53:42.841Z,84.38
2022-09-23T04:56:15.479Z,84.68
2022-09-23T04:58:43.252Z,84.73
2022-09-23T05:01:22.113Z,84.81
2022-09-23T05:03:48.578Z,84.44
2022-09-23T05:06:15.450Z,84.60
2022-09-23T05:08:46.937Z,84.65
2022-09-23T05:11:13.327Z,84.76
2022-09-23T05:13:39.870Z,84.96
2022-09-23T05:16:09.850Z,85.34
2022-09-23T05:18:39.003Z,85.17
2022-09-23T05:21:05.542Z,85.04
2022-09-23T05:23:31.968Z,84.82
2022-09-23T05:26:01.147Z,84.88
2022-09-23T05:28:32.875Z,84.92
2022-09-23T05:31:05.226Z,85.10
2022-09-23T05:33:33.079Z,85.22
2022-09-23T05:35:59.976Z,84.93
2022-09-23T05:38:28.285Z,85.22
2022-09-23T05:40:56.969Z,85.06
2022-09-23T05:43:23.733Z,85.34
2022-09-23T05:45:50.842Z,85.33
2022-09-23T05:48:18.719Z,85.45
2022-09-23T05:50:52.634Z,85.15
2022-09-23T05:53:19.478Z,84.94
2022-09-23T05:55:46.025Z,84.92
2022-09-23T05:58:13.503Z,85.38
2022-09-23T06:00:41.752Z,84.58
2022-09-23T06:03:13.762Z,84.19
2022-09-23T06:05:40.549Z,83.96
2022-09-23T06:08:07.893Z,84.20
2022-09-23T06:10:41.627Z,84.04
2022-09-23T06:13:08.936Z,83.90
2022-09-23T06:15:37.301Z,84.21
2022-09-23T06:18:04.803Z,83.51
2022-09-23T06:20:33.226Z,83.20
2022-09-23T06:23:10.324Z,82.95
2022-09-23T06:25:38.450Z,82.72
2022-09-23T06:28:07.413Z,82.20
2022-09-23T06:32:37.296Z,81.23
2022-09-23T06:35:04.056Z,80.88
2022-09-23T06:37:32.525Z,80.70
2022-09-23T06:39:59.007Z,80.62
2022-09-23T06:42:25.412Z,80.11
2022-09-23T06:44:52.642Z,80.10
2022-09-23T06:47:18.997Z,79.81
2022-09-23T06:49:48.657Z,79.53
2022-09-23T06:52:15.281Z,79.15
2022-09-23T06:54:41.978Z,78.40
2022-09-23T06:57:10.080Z,77.80
2022-09-23T06:59:36.490Z,77.02
2022-09-23T07:02:03.053Z,76.27
2022-09-23T07:04:29.761Z,74.48
2022-09-23T07:06:57.373Z,72.78
2022-09-23T07:09:23.788Z,72.22
2022-09-23T07:11:50.182Z,71.47
2022-09-23T07:14:16.591Z,70.44
2022-09-23T07:16:43.368Z,69.13
2022-09-23T07:19:10.715Z,69.01
2022-09-23T07:21:37.655Z,67.65
2022-09-23T07:24:04.941Z,67.08
2022-09-23T07:26:36.568Z,66.18
2022-09-23T07:29:05.196Z,65.10
2022-09-23T07:31:39.133Z,65.13
2022-09-23T07:34:12.065Z,63.10
2022-09-23T07:36:40.730Z,63.73
2022-09-23T07:39:12.168Z,63.60
2022-09-23T07:41:39.069Z,64.01
2022-09-23T07:44:06.417Z,64.76
2022-09-23T07:46:35.916Z,64.70
2022-09-23T07:49:05.480Z,64.95
2022-09-23T07:51:37.138Z,63.22
2022-09-23T07:54:08.160Z,64.17
2022-09-23T07:56:35.813Z,63.92
2022-09-23T07:59:04.564Z,64.54
2022-09-23T08:01:35.541Z,64.01
2022-09-23T08:04:21.100Z,63.70
2022-09-23T08:06:50.309Z,62.50
2022-09-23T08:09:18.770Z,61.52
2022-09-23T08:11:45.748Z,62.74
2022-09-23T08:14:13.789Z,62.49
2022-09-23T08:16:45.605Z,63.11
2022-09-23T08:19:12.847Z,64.14
2022-09-23T08:21:40.421Z,63.56
2022-09-23T08:24:15.467Z,63.49
2022-09-23T08:26:43.138Z,64.36
2022-09-23T08:29:15.792Z,64.40
2022-09-23T08:31:43.518Z,64.33
2022-09-23T08:34:10.234Z,64.45
2022-09-23T08:36:37.075Z,64.04
2022-09-23T08:39:04.957Z,63.55
2022-09-23T08:41:46.452Z,62.95
2022-09-23T08:44:27.655Z,62.65
2022-09-23T08:47:21.829Z,62.21
2022-09-23T08:49:57.621Z,61.33
2022-09-23T08:52:32.696Z,61.31
2022-09-23T08:54:59.366Z,60.52
2022-09-23T08:58:24.651Z,59.68
2022-09-23T09:01:13.303Z,57.90
2022-09-23T09:03:55.230Z,58.65
2022-09-23T09:06:27.255Z,58.92
2022-09-23T09:09:04.027Z,59.03
2022-09-23T09:11:37.319Z,60.45
2022-09-23T09:14:22.500Z,59.09
2022-09-23T09:17:03.699Z,57.59
2022-09-23T09:19:55.336Z,57.14
2022-09-23T09:22:49.804Z,57.50
2022-09-23T09:25:22.454Z,58.24
2022-09-23T09:27:49.013Z,58.92
2022-09-23T09:30:17.197Z,58.49
2022-09-23T09:33:03.505Z,57.51
2022-09-23T09:35:53.941Z,56.03
2022-09-23T09:38:22.030Z,56.95
2022-09-23T09:40:48.752Z,54.96
2022-09-23T09:43:23.288Z,53.37
2022-09-23T09:46:16.426Z,54.66
2022-09-23T09:48:58.666Z,54.69
2022-09-23T09:51:28.378Z,53.68
2022-09-23T09:54:18.307Z,54.19
2022-09-23T09:56:45.310Z,56.33
2022-09-23T09:59:23.260Z,56.37
2022-09-23T10:01:54.570Z,54.30
2022-09-23T10:04:34.265Z,54.57
2022-09-23T10:07:14.449Z,54.47
2022-09-23T10:09:48.941Z,55.15
2022-09-23T10:12:18.890Z,54.44
2022-09-23T10:14:47.265Z,53.46
2022-09-23T10:17:50.181Z,52.44
2022-09-23T10:20:16.731Z,52.49
2022-09-23T10:22:43.227Z,52.22
2022-09-23T10:25:20.160Z,53.01
2022-09-23T10:27:46.913Z,52.69
2022-09-23T10:30:23.977Z,51.62
2022-09-23T10:32:53.143Z,51.82
2022-09-23T10:35:24.384Z,49.67
2022-09-23T10:37:55.353Z,48.92
2022-09-23T10:43:54.428Z,46.16
2022-09-23T10:46:39.677Z,45.59
2022-09-23T10:49:24.918Z,45.90
2022-09-23T10:52:25.459Z,45.21
2022-09-23T10:55:26.516Z,44.68
2022-09-23T10:57:53.078Z,44.59
2022-09-23T11:00:44.344Z,46.31
2022-09-23T11:03:33.715Z,45.11
2022-09-23T11:06:20.108Z,43.75
2022-09-23T11:09:22.613Z,43.75
2022-09-23T11:12:07.367Z,43.35
2022-09-23T11:14:41.528Z,40.12
2022-09-23T11:17:34.377Z,40.18
2022-09-23T11:20:23.624Z,41.13
2022-09-23T11:23:21.470Z,40.75
2022-09-23T11:26:06.713Z,43.48
2022-09-23T11:28:56.988Z,45.34
2022-09-23T11:31:26.407Z,44.55
2022-09-23T11:34:12.462Z,44.95
2022-09-23T11:36:45.480Z,45.11
2022-09-23T11:39:17.779Z,44.75
2022-09-23T11:41:45.275Z,43.91
2022-09-23T11:44:26.178Z,45.80
2022-09-23T11:46:56.407Z,46.60
2022-09-23T11:49:32.665Z,47.15
2022-09-23T11:52:22.786Z,48.17
2022-09-23T11:54:55.773Z,47.05
2022-09-23T11:57:46.059Z,47.59
2022-09-23T12:00:31.776Z,46.94
2022-09-23T12:03:13.219Z,46.77
2022-09-23T12:06:10.119Z,46.78
2022-09-23T12:08:37.189Z,46.85
2022-09-23T12:11:23.594Z,45.55
2022-09-23T12:14:19.260Z,45.07
2022-09-23T12:16:56.143Z,45.66
2022-09-23T12:20:00.481Z,45.05
2022-09-23T12:22:40.337Z,44.85
2022-09-23T12:25:26.758Z,44.18
2022-09-23T12:27:55.171Z,45.29
2022-09-23T12:30:26.642Z,44.66
2022-09-23T12:32:54.264Z,43.79
2022-09-23T12:35:24.258Z,42.25
2022-09-23T12:37:51.832Z,43.17
2022-09-23T12:40:28.670Z,42.59
2022-09-23T12:42:55.349Z,43.37
2022-09-23T12:45:32.548Z,42.82
2022-09-23T12:48:19.792Z,43.70
2022-09-23T12:50:49.144Z,42.40
2022-09-23T12:53:47.503Z,42.73
2022-09-23T12:56:15.299Z,43.22
2022-09-23T12:58:41.834Z,42.76
2022-09-23T13:01:19.124Z,43.59
2022-09-23T13:04:08.039Z,42.71
2022-09-23T13:07:05.125Z,42.20
2022-09-23T13:09:39.036Z,42.57
2022-09-23T13:12:15.706Z,41.12
2022-09-23T13:14:46.420Z,40.40
2022-09-23T13:17:29.202Z,39.91
2022-09-23T13:20:21.618Z,39.92
2022-09-23T13:22:51.822Z,41.46
2022-09-23T13:25:32.447Z,42.17
2022-09-23T13:28:01.961Z,43.09
2022-09-23T13:30:28.527Z,44.79
2022-09-23T13:33:20.949Z,45.57
2022-09-23T13:35:56.643Z,45.32
2022-09-23T13:38:26.116Z,44.90
2022-09-23T13:41:07.316Z,44.76
2022-09-23T13:43:47.846Z,45.80
2022-09-23T13:46:38.295Z,46.18
2022-09-23T13:49:05.615Z,46.48
2022-09-23T13:51:34.790Z,46.25
2022-09-23T13:54:04.011Z,45.82
2022-09-23T13:56:32.636Z,46.53
2022-09-23T13:59:25.633Z,46.90
2022-09-23T14:02:25.738Z,45.85
2022-09-23T14:04:52.723Z,46.80
2022-09-23T14:07:19.776Z,46.29
2022-09-23T14:09:50.966Z,46.02
2022-09-23T14:12:22.502Z,45.99
2022-09-23T14:14:51.802Z,46.19
2022-09-23T14:17:23.050Z,46.12
2022-09-23T14:26:02.313Z,48.20
2022-09-23T14:28:29.323Z,48.58
2022-09-23T14:30:58.268Z,48.55
2022-09-23T14:33:32.106Z,49.18
2022-09-23T14:36:07.552Z,49.29
2022-09-23T14:38:53.489Z,49.01
2022-09-23T14:41:23.851Z,49.43
2022-09-23T14:44:01.096Z,49.49
2022-09-23T14:46:30.460Z,49.82
2022-09-23T14:49:12.212Z,49.44
2022-09-23T14:51:51.811Z,49.10
2022-09-23T14:54:32.486Z,48.86
2022-09-23T14:57:00.117Z,49.23
2022-09-23T14:59:36.950Z,49.36
2022-09-23T15:02:39.278Z,49.81
2022-09-23T15:05:21.375Z,49.28
2022-09-23T15:07:51.393Z,49.54
2022-09-23T15:10:31.707Z,49.74
2022-09-23T15:13:17.725Z,49.80
2022-09-23T15:15:44.568Z,50.21
2022-09-23T15:18:22.431Z,50.35
2022-09-23T15:20:54.093Z,49.77
2022-09-23T15:23:34.476Z,49.53
2022-09-23T15:26:25.785Z,49.78
2022-09-23T15:28:55.803Z,50.22
2022-09-23T15:31:26.338Z,49.71
2022-09-23T15:33:52.791Z,49.61
2022-09-23T15:36:27.701Z,49.22
2022-09-23T15:39:01.931Z,49.80
2022-09-23T15:41:28.449Z,49.67
2022-09-23T15:43:56.371Z,49.77
2022-09-23T15:46:27.190Z,49.00
2022-09-23T15:49:22.987Z,49.69
2022-09-23T15:51:51.993Z,49.61
2022-09-23T15:54:19.351Z,49.72
2022-09-23T15:56:45.712Z,49.96
2022-09-23T15:59:12.738Z,49.74
2022-09-23T16:01:39.587Z,49.83
2022-09-23T16:04:06.140Z,49.64
2022-09-23T16:06:35.836Z,49.78
2022-09-23T16:09:02.551Z,50.16
2022-09-23T16:11:35.998Z,49.77
2022-09-23T16:14:02.494Z,50.21
2022-09-23T16:16:29.137Z,50.77
2022-09-23T16:18:55.582Z,50.75
2022-09-23T16:21:25.746Z,50.57
2022-09-23T16:23:53.343Z,49.46
2022-09-23T16:26:24.096Z,49.51
2022-09-23T16:28:53.038Z,50.42
2022-09-23T16:31:20.809Z,50.20
2022-09-23T16:33:48.542Z,50.66
2022-09-23T16:36:35.978Z,51.96
2022-09-23T16:39:15.879Z,53.93
2022-09-23T16:41:43.413Z,52.96
2022-09-23T16:44:14.284Z,52.72
2022-09-23T16:46:42.705Z,52.72
2022-09-23T16:49:11.898Z,53.45
2022-09-23T16:51:38.870Z,54.78
2022-09-23T16:54:10.165Z,56.13
2022-09-23T16:56:39.102Z,56.00
2022-09-23T16:59:05.952Z,55.66
2022-09-23T17:01:51.395Z,56.12
2022-09-23T17:04:19.299Z,56.37
2022-09-23T17:06:51.333Z,56.77
2022-09-23T17:09:19.887Z,56.99
2022-09-23T17:11:51.871Z,57.63
2022-09-23T17:14:18.413Z,58.21
2022-09-23T17:16:44.834Z,58.27
2022-09-23T17:19:12.176Z,58.63
2022-09-23T17:21:38.821Z,58.87
2022-09-23T17:24:06.045Z,57.83
2022-09-23T17:26:32.874Z,58.90
2022-09-23T17:29:01.506Z,60.09
2022-09-23T17:31:28.320Z,61.00
2022-09-23T17:33:55.291Z,60.94
2022-09-23T17:36:21.904Z,60.90
2022-09-23T17:38:49.252Z,60.53
2022-09-23T17:41:18.018Z,60.12
2022-09-23T17:43:45.309Z,60.74
2022-09-23T17:46:17.882Z,61.43
2022-09-23T17:48:45.000Z,61.79
2022-09-23T17:51:21.541Z,61.78
2022-09-23T17:53:49.017Z,62.60
2022-09-23T17:56:21.152Z,62.42
2022-09-23T17:58:49.734Z,63.14
2022-09-23T18:01:19.411Z,62.75
2022-09-23T18:03:46.691Z,63.43
2022-09-23T18:06:18.557Z,63.86
2022-09-23T18:08:47.785Z,64.09
2022-09-23T18:11:28.439Z,64.43
2022-09-23T18:14:00.318Z,65.12
2022-09-23T18:16:29.197Z,65.69
2022-09-23T18:18:57.736Z,65.88
2022-09-23T18:21:28.062Z,66.83
2022-09-23T18:23:57.316Z,67.11
2022-09-23T18:26:29.620Z,67.30
2022-09-23T18:29:00.834Z,67.61
2022-09-23T18:31:28.962Z,67.74
2022-09-23T18:33:55.921Z,67.75
2022-09-23T18:36:24.129Z,68.18
2022-09-23T18:38:52.330Z,68.28
2022-09-23T18:41:19.644Z,68.51
2022-09-23T18:43:48.511Z,68.64
2022-09-23T18:46:25.387Z,68.82
2022-09-23T18:49:11.454Z,69.27
2022-09-23T18:51:47.820Z,70.03
2022-09-23T18:54:16.025Z,70.23
2022-09-23T18:56:43.700Z,70.56
2022-09-23T18:59:16.600Z,70.99
2022-09-23T19:01:47.399Z,71.13
2022-09-23T19:04:19.521Z,71.32
2022-09-23T19:06:49.048Z,71.44
2022-09-23T19:09:16.493Z,71.62
2022-09-23T19:11:44.890Z,71.38
2022-09-23T19:14:12.364Z,71.73
2022-09-23T19:16:40.211Z,71.86
2022-09-23T19:19:07.161Z,72.03
2022-09-23T19:21:34.074Z,72.37
2022-09-23T19:24:03.649Z,72.45
2022-09-23T19:26:40.510Z,72.02
2022-09-23T19:29:08.798Z,72.39
2022-09-23T19:31:40.525Z,72.95
2022-09-23T19:34:29.331Z,72.60
2022-09-23T19:37:00.241Z,72.77
2022-09-23T19:39:32.128Z,73.05
2022-09-23T19:41:58.997Z,73.24
2022-09-23T19:44:26.687Z,73.50
2022-09-23T19:46:56.784Z,73.37
2022-09-23T19:49:24.589Z,73.50
2022-09-23T19:51:51.724Z,73.93
2022-09-23T19:54:20.387Z,73.46
2022-09-23T19:56:50.482Z,74.11
2022-09-23T19:59:19.110Z,74.21
2022-09-23T20:01:48.821Z,74.49
2022-09-23T20:04:16.056Z,74.76
2022-09-23T20:06:42.860Z,74.82
2022-09-23T20:09:09.366Z,74.26
2022-09-23T20:11:35.967Z,75.14
2022-09-23T20:14:05.692Z,75.52
2022-09-23T20:16:34.972Z,75.70
2022-09-23T20:19:04.184Z,75.90
2022-09-23T20:21:31.458Z,76.36
2022-09-23T20:23:58.125Z,76.55
2022-09-23T20:26:43.440Z,76.71
2022-09-23T20:29:10.987Z,77.40
2022-09-23T20:31:39.845Z,77.36
2022-09-23T20:34:07.335Z,77.88
2022-09-23T20:36:35.254Z,77.84
2022-09-23T20:39:07.892Z,78.11
2022-09-23T20:41:37.418Z,78.45
2022-09-23T20:44:07.460Z,78.09
2022-09-23T20:46:34.577Z,78.39
2022-09-23T20:49:01.967Z,77.90
2022-09-23T20:51:28.720Z,78.05
2022-09-23T20:53:55.502Z,78.41
2022-09-23T20:56:25.794Z,78.25
2022-09-23T20:58:54.019Z,78.39
2022-09-23T21:01:21.438Z,78.68
2022-09-23T21:03:51.262Z,78.93
2022-09-23T21:06:19.319Z,78.78
2022-09-23T21:08:46.604Z,78.48
2022-09-23T21:11:17.810Z,77.75
2022-09-23T21:13:49.059Z,78.25
2022-09-23T21:16:16.990Z,77.70
2022-09-23T21:18:44.635Z,77.28
2022-09-23T21:21:12.169Z,77.57
2022-09-23T21:23:39.329Z,78.04
2022-09-23T21:26:10.486Z,78.26
2022-09-23T21:28:39.962Z,78.25
2022-09-23T21:31:11.985Z,78.44
2022-09-23T21:33:38.819Z,78.25
2022-09-23T21:36:09.542Z,77.63
2022-09-23T21:38:37.435Z,77.72
2022-09-23T21:41:06.726Z,77.61
2022-09-23T21:43:37.217Z,77.23
2022-09-23T21:46:05.847Z,77.18
2022-09-23T21:48:34.082Z,77.36
2022-09-23T21:51:04.343Z,77.26
2022-09-23T21:53:32.656Z,77.75
2022-09-23T21:56:11.232Z,77.93
2022-09-23T21:58:39.381Z,78.19
2022-09-23T22:01:08.952Z,78.06
2022-09-23T22:03:37.844Z,77.86
2022-09-23T22:06:12.611Z,77.64
2022-09-23T22:08:41.588Z,78.26
2022-09-23T22:11:34.708Z,77.37
2022-09-23T22:14:07.076Z,77.23
2022-09-23T22:16:36.884Z,77.72
2022-09-23T22:19:08.172Z,77.18
2022-09-23T22:21:37.448Z,76.92
2022-09-23T22:24:05.355Z,77.46
2022-09-23T22:26:33.863Z,77.38
2022-09-23T22:29:20.513Z,77.42
2022-09-23T22:32:05.350Z,77.99
2022-09-23T22:34:49.201Z,77.26
2022-09-23T22:37:19.957Z,77.05
2022-09-23T22:39:46.657Z,76.77
2022-09-23T22:42:13.477Z,76.79
2022-09-23T22:44:40.206Z,77.42
2022-09-23T22:47:07.089Z,77.47
2022-09-23T22:49:33.642Z,77.48
2022-09-23T22:52:00.165Z,77.64
2022-09-23T22:54:33.722Z,77.66
2022-09-23T22:57:03.134Z,77.76
2022-09-23T22:59:29.861Z,77.96
2022-09-23T23:01:57.199Z,78.10
2022-09-23T23:04:23.764Z,78.37
2022-09-23T23:06:50.193Z,78.35
2022-09-23T23:09:18.826Z,78.23
2022-09-23T23:11:45.678Z,78.08
2022-09-23T23:14:14.569Z,78.02
2022-09-23T23:16:42.050Z,77.70
2022-09-23T23:19:11.978Z,77.75
2022-09-23T23:21:38.707Z,77.86
2022-09-23T23:24:05.497Z,78.09
2022-09-23T23:26:34.097Z,77.86
2022-09-23T23:29:01.571Z,78.34
2022-09-23T23:31:31.744Z,78.55
2022-09-23T23:33:58.138Z,77.74
2022-09-23T23:36:24.521Z,77.99
2022-09-23T23:38:51.683Z,78.90
2022-09-23T23:41:22.439Z,78.00
2022-09-23T23:43:55.166Z,77.93
2022-09-23T23:46:25.237Z,78.83
2022-09-23T23:48:52.801Z,79.15
2022-09-23T23:51:19.840Z,79.08
2022-09-23T23:53:46.596Z,79.43
2022-09-23T23:56:15.633Z,78.95
2022-09-23T23:58:42.726Z,79.56
